LFHZ weather

Sallanches Airport
Moulins, Rhône Alpes, France

Public forecast

Using degrees Celsius for public forecast. Weather courtesy of forecast.io.

METAR (pilot weather report)

Closest report is Annecy-Haute-Savoie-Mont Blanc Airport, 22.3 nm (41.3 km) W. Retrieved 2019/09/21 18:30 UTC (11 minutes ago):

LFLP 211830Z AUTO VRB02KT CAVOK 21/12 Q1015 NOSIG

TAF (pilot weather forecast)

Closest forecast is Annecy-Haute-Savoie-Mont Blanc Airport, 22.3 nm (41.3 km) W. Retrieved 2019/09/21 15:00 UTC (4 hours ago):

TAF LFLP 211400Z 2115/2215 VRB02KT CAVOK